createdAt,value
2016-11-29T00:00:42.236Z,0
2016-11-29T00:01:42.264Z,0
2016-11-29T00:02:42.201Z,0
2016-11-29T00:03:42.166Z,0
2016-11-29T00:04:42.149Z,0
2016-11-29T00:05:42.127Z,0
2016-11-29T00:06:42.127Z,0
2016-11-29T00:07:42.087Z,0
2016-11-29T00:08:42.080Z,0
2016-11-29T00:09:42.079Z,0
2016-11-29T00:10:42.002Z,0
2016-11-29T00:11:41.982Z,0
2016-11-29T00:12:41.941Z,0
2016-11-29T00:13:41.932Z,0
2016-11-29T00:14:41.918Z,0
2016-11-29T00:15:41.904Z,0
2016-11-29T00:16:41.857Z,0
2016-11-29T00:17:41.806Z,0
2016-11-29T00:18:41.806Z,0
2016-11-29T00:19:41.788Z,0
2016-11-29T00:20:41.747Z,0
2016-11-29T00:21:41.726Z,0
2016-11-29T00:22:41.715Z,0
2016-11-29T00:23:41.658Z,0
2016-11-29T00:24:41.665Z,0
2016-11-29T00:25:41.612Z,0
2016-11-29T00:26:41.588Z,0
2016-11-29T00:27:41.542Z,0
2016-11-29T00:28:41.538Z,0
2016-11-29T00:29:41.512Z,0
2016-11-29T00:30:41.503Z,0
2016-11-29T00:31:41.466Z,0
2016-11-29T00:32:41.430Z,0
2016-11-29T00:33:41.406Z,0
2016-11-29T00:34:41.373Z,0
2016-11-29T00:35:41.374Z,0
2016-11-29T00:36:41.331Z,0
2016-11-29T00:37:41.298Z,0
2016-11-29T00:38:41.272Z,0
2016-11-29T00:39:41.262Z,0
2016-11-29T00:40:41.234Z,0
2016-11-29T00:41:41.205Z,0
2016-11-29T00:42:41.151Z,0
2016-11-29T00:43:41.164Z,0
2016-11-29T00:44:41.131Z,0
2016-11-29T00:45:41.100Z,0
2016-11-29T00:46:41.084Z,0
2016-11-29T00:47:41.068Z,0
2016-11-29T00:48:41.024Z,0
2016-11-29T00:49:41.006Z,0
2016-11-29T00:50:40.987Z,0
2016-11-29T00:51:40.953Z,0
2016-11-29T00:52:40.961Z,0
2016-11-29T00:53:40.900Z,0
2016-11-29T00:54:40.864Z,0
2016-11-29T00:55:40.841Z,0
2016-11-29T00:56:40.815Z,0
2016-11-29T00:57:40.786Z,0
2016-11-29T00:58:40.783Z,0
2016-11-29T00:59:40.747Z,0
2016-11-29T01:00:40.722Z,0
2016-11-29T01:01:40.686Z,0
2016-11-29T01:02:40.657Z,0
2016-11-29T01:03:40.646Z,0
2016-11-29T01:04:40.611Z,0
2016-11-29T01:05:40.589Z,0
2016-11-29T01:06:40.599Z,0
2016-11-29T01:07:40.529Z,0
2016-11-29T01:08:40.499Z,0
2016-11-29T01:09:40.492Z,0
2016-11-29T01:10:40.462Z,0
2016-11-29T01:11:40.458Z,0
2016-11-29T01:12:40.404Z,0
2016-11-29T01:13:40.388Z,0
2016-11-29T01:14:40.366Z,0
2016-11-29T01:15:40.323Z,0
2016-11-29T01:16:40.316Z,0
2016-11-29T01:17:40.281Z,0
2016-11-29T01:18:40.260Z,0
2016-11-29T01:19:40.220Z,0
2016-11-29T01:20:40.203Z,0
2016-11-29T01:21:40.180Z,0
2016-11-29T01:22:40.164Z,0
2016-11-29T01:23:40.129Z,0
2016-11-29T01:24:40.084Z,0
2016-11-29T01:25:40.083Z,0
2016-11-29T01:26:40.076Z,0
2016-11-29T01:27:40.001Z,0
2016-11-29T01:28:40.009Z,0
2016-11-29T01:29:39.966Z,0
2016-11-29T01:30:39.949Z,0
2016-11-29T01:31:39.902Z,0
2016-11-29T01:32:39.893Z,0
2016-11-29T01:33:39.849Z,0
2016-11-29T01:34:39.840Z,0
2016-11-29T01:35:39.860Z,0
2016-11-29T01:36:39.827Z,0
2016-11-29T01:37:39.800Z,0
2016-11-29T01:38:39.758Z,0
2016-11-29T01:39:39.699Z,0
2016-11-29T01:40:39.685Z,0
2016-11-29T01:41:39.684Z,0
2016-11-29T01:42:39.667Z,0
2016-11-29T01:43:39.617Z,0
2016-11-29T01:44:39.592Z,0
2016-11-29T01:45:39.573Z,0
2016-11-29T01:46:39.561Z,0
2016-11-29T01:47:39.830Z,0
2016-11-29T01:48:39.497Z,0
2016-11-29T01:49:39.484Z,0
2016-11-29T01:50:39.448Z,0
2016-11-29T01:51:39.400Z,0
2016-11-29T01:52:39.407Z,0
2016-11-29T01:53:39.363Z,0
2016-11-29T01:54:39.663Z,0
2016-11-29T01:55:39.369Z,0
2016-11-29T01:56:39.268Z,0
2016-11-29T01:57:39.273Z,0
2016-11-29T01:58:39.272Z,0
2016-11-29T01:59:39.213Z,0
2016-11-29T02:00:39.194Z,0
2016-11-29T02:01:39.175Z,0
2016-11-29T02:02:39.137Z,0
2016-11-29T02:03:39.102Z,0
2016-11-29T02:04:39.072Z,0
2016-11-29T02:05:39.053Z,0
2016-11-29T02:06:39.031Z,0
2016-11-29T02:07:38.987Z,0
2016-11-29T02:08:38.975Z,0
2016-11-29T02:09:38.950Z,0
2016-11-29T02:10:38.942Z,0
2016-11-29T02:11:38.952Z,0
2016-11-29T02:12:38.866Z,0
2016-11-29T02:13:38.857Z,0
2016-11-29T02:14:38.833Z,0
2016-11-29T02:15:38.827Z,0
2016-11-29T02:16:38.805Z,0
2016-11-29T02:17:38.764Z,0
2016-11-29T02:18:38.743Z,0
2016-11-29T02:19:38.704Z,0
2016-11-29T02:20:38.705Z,0
2016-11-29T02:21:38.679Z,0
2016-11-29T02:22:38.655Z,0
2016-11-29T02:23:38.620Z,0
2016-11-29T02:24:38.574Z,0
2016-11-29T02:25:38.547Z,0
2016-11-29T02:26:38.509Z,0
2016-11-29T02:27:38.484Z,0
2016-11-29T02:28:38.474Z,0
2016-11-29T02:29:38.463Z,0
2016-11-29T02:30:38.425Z,0
2016-11-29T02:31:38.507Z,0
2016-11-29T02:32:38.353Z,0
2016-11-29T02:33:38.362Z,0
2016-11-29T02:34:38.351Z,0
2016-11-29T02:35:38.327Z,0
2016-11-29T02:36:38.292Z,0
2016-11-29T02:37:38.255Z,0
2016-11-29T02:38:38.226Z,0
2016-11-29T02:39:38.229Z,0
2016-11-29T02:40:38.172Z,0
2016-11-29T02:41:38.450Z,0
2016-11-29T02:42:38.103Z,0
2016-11-29T02:43:38.109Z,0
2016-11-29T02:44:38.077Z,0
2016-11-29T02:45:38.053Z,0
2016-11-29T02:46:38.012Z,0
2016-11-29T02:47:37.994Z,0
2016-11-29T02:48:37.975Z,0
2016-11-29T02:49:37.952Z,0
2016-11-29T02:50:37.914Z,0
2016-11-29T02:51:37.894Z,0
2016-11-29T02:52:37.888Z,0
2016-11-29T02:53:37.867Z,0
2016-11-29T02:54:37.846Z,0
2016-11-29T02:55:37.803Z,0
2016-11-29T02:56:37.768Z,0
2016-11-29T02:57:37.744Z,0
2016-11-29T02:58:37.743Z,0
2016-11-29T02:59:37.700Z,0
2016-11-29T03:00:37.692Z,0
2016-11-29T03:01:37.642Z,0
2016-11-29T03:02:37.626Z,0
2016-11-29T03:03:37.602Z,0
2016-11-29T03:04:37.611Z,0
2016-11-29T03:05:37.555Z,0
2016-11-29T03:06:37.524Z,0
2016-11-29T03:07:37.504Z,0
2016-11-29T03:08:37.505Z,0
2016-11-29T03:09:37.461Z,0
2016-11-29T03:10:37.458Z,0
2016-11-29T03:11:37.418Z,0
2016-11-29T03:12:37.359Z,0
2016-11-29T03:13:37.351Z,0
2016-11-29T03:14:37.312Z,0
2016-11-29T03:15:37.338Z,0
2016-11-29T03:16:37.302Z,0
2016-11-29T03:17:37.265Z,0
2016-11-29T03:18:37.226Z,0
2016-11-29T03:19:37.216Z,0
2016-11-29T03:20:37.198Z,0
2016-11-29T03:21:37.179Z,0
2016-11-29T03:22:37.109Z,0
2016-11-29T03:23:37.100Z,0
2016-11-29T03:24:37.106Z,0
2016-11-29T03:25:37.081Z,0
2016-11-29T03:26:37.054Z,0
2016-11-29T03:27:37.028Z,0
2016-11-29T03:28:36.978Z,0
2016-11-29T03:29:36.942Z,0
2016-11-29T03:30:36.948Z,0
2016-11-29T03:31:36.907Z,0
2016-11-29T03:32:36.902Z,0
2016-11-29T03:33:36.867Z,0
2016-11-29T03:34:36.846Z,0
2016-11-29T03:35:36.813Z,0
2016-11-29T03:36:36.802Z,0
2016-11-29T03:37:36.768Z,0
2016-11-29T03:38:36.748Z,0
2016-11-29T03:39:36.693Z,0
2016-11-29T03:40:36.994Z,0
2016-11-29T03:41:36.674Z,0
2016-11-29T03:42:36.659Z,0
2016-11-29T03:43:36.640Z,0
2016-11-29T03:44:36.595Z,0
2016-11-29T03:45:36.569Z,0
2016-11-29T03:46:36.551Z,0
2016-11-29T03:47:36.551Z,0
2016-11-29T03:48:36.500Z,0
2016-11-29T03:49:36.471Z,0
2016-11-29T03:50:36.441Z,0
2016-11-29T03:51:36.432Z,0
2016-11-29T03:52:36.722Z,0
2016-11-29T03:53:36.384Z,0
2016-11-29T03:54:36.351Z,0
2016-11-29T03:55:36.336Z,0
2016-11-29T03:56:36.307Z,0
2016-11-29T03:57:36.280Z,0
2016-11-29T03:58:36.259Z,0
2016-11-29T03:59:36.221Z,0
2016-11-29T04:00:36.204Z,0
2016-11-29T04:01:36.183Z,0
2016-11-29T04:02:36.155Z,0
2016-11-29T04:03:36.116Z,0
2016-11-29T04:04:36.117Z,0
2016-11-29T04:05:36.092Z,0
2016-11-29T04:06:36.049Z,0
2016-11-29T04:07:36.048Z,0
2016-11-29T04:08:36.030Z,0
2016-11-29T04:09:35.995Z,0
2016-11-29T04:10:35.979Z,0
2016-11-29T04:11:35.923Z,0
2016-11-29T04:12:35.913Z,0
2016-11-29T04:13:35.894Z,0
2016-11-29T04:14:35.873Z,0
2016-11-29T04:15:35.845Z,0
2016-11-29T04:16:35.807Z,0
2016-11-29T04:17:35.806Z,0
2016-11-29T04:18:35.782Z,0
2016-11-29T04:19:35.759Z,0
2016-11-29T04:20:35.718Z,0
2016-11-29T04:21:35.677Z,0
2016-11-29T04:22:35.652Z,0
2016-11-29T04:23:35.625Z,0
2016-11-29T04:24:35.619Z,0
2016-11-29T04:25:35.577Z,0
2016-11-29T04:26:35.552Z,0
2016-11-29T04:27:35.536Z,0
2016-11-29T04:28:35.505Z,0
2016-11-29T04:29:35.479Z,0
2016-11-29T04:30:35.459Z,0
2016-11-29T04:31:35.434Z,0
2016-11-29T04:32:35.406Z,0
2016-11-29T04:33:35.377Z,0
2016-11-29T04:34:35.359Z,0
2016-11-29T04:35:35.334Z,0
2016-11-29T04:36:35.312Z,0
2016-11-29T04:37:35.287Z,0
2016-11-29T04:38:35.256Z,0
2016-11-29T04:39:35.237Z,0
2016-11-29T04:40:35.215Z,0
2016-11-29T04:41:35.225Z,0
2016-11-29T04:42:35.164Z,0
2016-11-29T04:43:35.148Z,0
2016-11-29T04:44:35.117Z,0
2016-11-29T04:45:35.092Z,0
2016-11-29T04:46:35.094Z,0
2016-11-29T04:47:35.346Z,0
2016-11-29T04:48:35.020Z,0
2016-11-29T04:49:34.999Z,0
2016-11-29T04:50:34.975Z,0
2016-11-29T04:51:34.947Z,0
2016-11-29T04:52:34.924Z,0
2016-11-29T04:53:34.913Z,0
2016-11-29T04:54:34.875Z,0
2016-11-29T04:55:34.857Z,0
2016-11-29T04:56:34.831Z,0
2016-11-29T04:57:34.809Z,0
2016-11-29T04:58:34.781Z,0
2016-11-29T04:59:34.758Z,0
2016-11-29T05:00:34.731Z,0
2016-11-29T05:01:34.707Z,0
2016-11-29T05:02:34.688Z,0
2016-11-29T05:03:34.662Z,0
2016-11-29T05:04:34.639Z,0
2016-11-29T05:05:34.619Z,0
2016-11-29T05:06:34.595Z,0
2016-11-29T05:07:34.566Z,0
2016-11-29T05:08:34.557Z,0
2016-11-29T05:09:34.523Z,0
2016-11-29T05:10:34.496Z,0
2016-11-29T05:11:34.497Z,0
2016-11-29T05:12:34.451Z,0
2016-11-29T05:13:34.429Z,0
2016-11-29T05:14:34.405Z,0
2016-11-29T05:15:34.380Z,0
2016-11-29T05:16:34.353Z,0
2016-11-29T05:17:34.333Z,0
2016-11-29T05:18:34.316Z,0
2016-11-29T05:19:34.290Z,0
2016-11-29T05:20:34.260Z,0
2016-11-29T05:21:34.243Z,0
2016-11-29T05:22:34.216Z,0
2016-11-29T05:23:34.194Z,0
2016-11-29T05:24:34.173Z,0
2016-11-29T05:25:34.153Z,0
2016-11-29T05:26:34.123Z,0
2016-11-29T05:27:34.106Z,0
2016-11-29T05:28:34.075Z,0
2016-11-29T05:29:34.094Z,0
2016-11-29T05:30:34.032Z,0
2016-11-29T05:31:34.009Z,0
2016-11-29T05:32:33.984Z,0
2016-11-29T05:33:33.961Z,0
2016-11-29T05:34:33.939Z,0
2016-11-29T05:35:33.918Z,0
2016-11-29T05:36:33.894Z,0
2016-11-29T05:37:33.867Z,0
2016-11-29T05:38:33.849Z,0
2016-11-29T05:39:33.821Z,0
2016-11-29T05:40:33.802Z,0
2016-11-29T05:41:33.793Z,0
2016-11-29T05:42:33.775Z,0
2016-11-29T05:43:33.761Z,0
2016-11-29T05:44:33.743Z,0
2016-11-29T05:45:33.707Z,0
2016-11-29T05:46:33.690Z,0
2016-11-29T05:47:33.679Z,0
2016-11-29T05:48:33.621Z,0
2016-11-29T05:49:33.608Z,0
2016-11-29T05:50:48.490Z,0
2016-11-29T05:51:33.765Z,0
2016-11-29T05:52:33.569Z,0
2016-11-29T05:53:33.525Z,0
2016-11-29T05:54:33.526Z,0
2016-11-29T05:55:33.488Z,0
2016-11-29T05:56:33.448Z,0
2016-11-29T05:57:33.439Z,0
2016-11-29T05:58:33.408Z,0
2016-11-29T05:59:33.383Z,0
2016-11-29T06:00:33.354Z,0
2016-11-29T06:01:33.375Z,4
2016-11-29T06:02:33.316Z,0
2016-11-29T06:03:33.291Z,0
2016-11-29T06:04:33.275Z,4
2016-11-29T06:05:33.242Z,0
2016-11-29T06:06:33.203Z,4
2016-11-29T06:07:33.206Z,4
2016-11-29T06:08:33.206Z,8
2016-11-29T06:09:33.156Z,8
2016-11-29T06:10:33.151Z,8
2016-11-29T06:11:33.120Z,8
2016-11-29T06:12:33.106Z,12
2016-11-29T06:13:33.062Z,12
2016-11-29T06:14:33.047Z,12
2016-11-29T06:15:33.020Z,20
2016-11-29T06:16:33.217Z,24
2016-11-29T06:17:33.174Z,28
2016-11-29T06:18:32.947Z,32
2016-11-29T06:19:32.949Z,40
2016-11-29T06:20:32.913Z,48
2016-11-29T06:21:32.911Z,56
2016-11-29T06:22:32.856Z,64
2016-11-29T06:23:32.832Z,76
2016-11-29T06:24:32.822Z,88
2016-11-29T06:25:32.778Z,100
2016-11-29T06:26:32.769Z,116
2016-11-29T06:27:32.760Z,132
2016-11-29T06:28:32.727Z,152
2016-11-29T06:29:32.718Z,176
2016-11-29T06:30:32.688Z,196
2016-11-29T06:31:32.688Z,220
2016-11-29T06:32:32.643Z,252
2016-11-29T06:33:32.626Z,280
2016-11-29T06:34:32.594Z,316
2016-11-29T06:35:32.593Z,352
2016-11-29T06:36:32.597Z,388
2016-11-29T06:37:32.507Z,432
2016-11-29T06:38:32.498Z,476
2016-11-29T06:39:32.472Z,520
2016-11-29T06:40:32.443Z,564
2016-11-29T06:41:32.426Z,620
2016-11-29T06:42:32.404Z,684
2016-11-29T06:43:32.597Z,776
2016-11-29T06:44:32.379Z,884
2016-11-29T06:45:32.556Z,972
2016-11-29T06:46:32.326Z,1052
2016-11-29T06:47:32.280Z,1132
2016-11-29T06:48:32.267Z,1220
2016-11-29T06:49:32.253Z,1312
2016-11-29T06:50:32.233Z,1392
2016-11-29T06:51:32.198Z,1484
2016-11-29T06:52:32.200Z,1576
2016-11-29T06:53:32.153Z,1668
2016-11-29T06:54:32.154Z,1760
2016-11-29T06:55:32.116Z,1848
2016-11-29T06:56:32.107Z,1952
2016-11-29T06:57:32.076Z,2064
2016-11-29T06:58:32.059Z,2164
2016-11-29T06:59:32.025Z,2268
2016-11-29T07:00:31.995Z,2372
2016-11-29T07:01:31.989Z,2480
2016-11-29T07:02:31.950Z,2592
2016-11-29T07:03:31.956Z,2692
2016-11-29T07:04:31.936Z,2800
2016-11-29T07:05:31.906Z,2896
2016-11-29T07:06:31.865Z,2996
2016-11-29T07:07:31.847Z,3100
2016-11-29T07:08:32.147Z,3204
2016-11-29T07:09:31.825Z,3304
2016-11-29T07:10:31.775Z,3404
2016-11-29T07:11:31.770Z,3504
2016-11-29T07:12:31.932Z,3600
2016-11-29T07:13:31.741Z,3712
2016-11-29T07:14:31.721Z,3820
2016-11-29T07:15:31.669Z,3920
2016-11-29T07:16:31.662Z,4028
2016-11-29T07:17:31.662Z,4128
2016-11-29T07:18:31.615Z,4244
2016-11-29T07:19:31.590Z,4352
2016-11-29T07:20:31.561Z,4472
2016-11-29T07:21:31.543Z,4580
2016-11-29T07:22:31.524Z,4692
2016-11-29T07:23:31.501Z,4772
2016-11-29T07:24:31.477Z,4872
2016-11-29T07:25:31.470Z,4996
2016-11-29T07:26:31.446Z,5280
2016-11-29T07:27:31.433Z,5544
2016-11-29T07:28:31.413Z,5740
2016-11-29T07:29:31.377Z,5840
2016-11-29T07:30:31.382Z,6004
2016-11-29T07:31:31.357Z,6184
2016-11-29T07:32:31.321Z,6216
2016-11-29T07:33:31.326Z,6132
2016-11-29T07:34:31.337Z,6076
2016-11-29T07:35:31.259Z,6272
2016-11-29T07:36:31.248Z,6556
2016-11-29T07:37:31.238Z,6824
2016-11-29T07:38:31.205Z,6920
2016-11-29T07:39:31.419Z,6992
2016-11-29T07:40:31.362Z,7164
2016-11-29T07:41:31.143Z,7300
2016-11-29T07:42:31.145Z,7620
2016-11-29T07:43:31.099Z,7608
2016-11-29T07:44:31.090Z,7484
2016-11-29T07:45:31.053Z,7684
2016-11-29T07:46:31.065Z,7820
2016-11-29T07:47:31.040Z,7780
2016-11-29T07:48:31.005Z,8108
2016-11-29T07:49:30.971Z,8572
2016-11-29T07:50:30.936Z,8652
2016-11-29T07:51:30.954Z,8584
2016-11-29T07:52:30.945Z,8424
2016-11-29T07:53:30.903Z,8644
2016-11-29T07:54:30.891Z,9028
2016-11-29T07:55:30.852Z,9256
2016-11-29T07:56:30.859Z,9440
2016-11-29T07:57:30.826Z,9612
2016-11-29T07:58:30.815Z,9748
2016-11-29T07:59:30.772Z,10088
2016-11-29T08:00:30.743Z,10468
2016-11-29T08:01:31.069Z,10696
2016-11-29T08:02:30.749Z,11520
2016-11-29T08:03:30.708Z,12112
2016-11-29T08:04:30.682Z,12380
2016-11-29T08:05:30.701Z,12720
2016-11-29T08:06:30.676Z,13536
2016-11-29T08:07:30.643Z,14048
2016-11-29T08:08:30.620Z,14368
2016-11-29T08:09:30.576Z,15456
2016-11-29T08:10:30.575Z,14912
2016-11-29T08:11:30.530Z,14352
2016-11-29T08:12:30.559Z,13472
2016-11-29T08:13:30.528Z,12956
2016-11-29T08:14:30.495Z,13652
2016-11-29T08:15:30.465Z,14124
2016-11-29T08:16:30.471Z,14524
2016-11-29T08:17:30.448Z,14740
2016-11-29T08:18:30.425Z,15520
2016-11-29T08:19:30.393Z,16800
2016-11-29T08:20:30.413Z,17440
2016-11-29T08:21:30.373Z,17248
2016-11-29T08:22:30.342Z,15680
2016-11-29T08:23:30.319Z,14232
2016-11-29T08:24:30.317Z,14060
2016-11-29T08:25:30.314Z,13900
2016-11-29T08:26:30.246Z,14884
2016-11-29T08:27:30.554Z,16896
2016-11-29T08:28:30.247Z,17344
2016-11-29T08:29:30.235Z,14972
2016-11-29T08:30:30.197Z,14140
2016-11-29T08:31:30.178Z,16416
2016-11-29T08:32:30.190Z,17728
2016-11-29T08:33:30.160Z,18368
2016-11-29T08:34:30.153Z,18432
2016-11-29T08:35:30.099Z,19200
2016-11-29T08:36:30.101Z,19232
2016-11-29T08:37:30.372Z,19520
2016-11-29T08:38:30.059Z,20416
2016-11-29T08:39:30.048Z,20160
2016-11-29T08:40:30.002Z,18240
2016-11-29T08:41:29.993Z,17952
2016-11-29T08:42:29.987Z,19968
2016-11-29T08:43:29.963Z,20960
2016-11-29T08:44:29.952Z,21568
2016-11-29T08:45:29.955Z,21664
2016-11-29T08:46:29.940Z,21952
2016-11-29T08:47:29.926Z,24064
2016-11-29T08:48:30.193Z,25120
2016-11-29T08:49:29.905Z,25792
2016-11-29T08:50:29.873Z,26688
2016-11-29T08:51:29.852Z,26976
2016-11-29T08:52:29.803Z,25280
2016-11-29T08:53:29.835Z,23904
2016-11-29T08:54:29.795Z,22912
2016-11-29T08:55:29.775Z,23392
2016-11-29T08:56:29.772Z,24192
2016-11-29T08:57:29.730Z,24128
2016-11-29T08:58:29.684Z,21824
2016-11-29T08:59:29.709Z,20288
2016-11-29T09:00:29.688Z,19648
2016-11-29T09:01:29.683Z,19072
2016-11-29T09:02:29.646Z,18976
2016-11-29T09:03:29.651Z,20992
2016-11-29T09:04:29.603Z,25408
2016-11-29T09:05:29.595Z,27840
2016-11-29T09:06:29.578Z,29600
2016-11-29T09:07:29.566Z,31488
2016-11-29T09:08:29.853Z,32480
2016-11-29T09:09:29.536Z,29792
2016-11-29T09:10:29.506Z,29184
2016-11-29T09:11:29.479Z,29184
2016-11-29T09:12:29.492Z,29248
2016-11-29T09:13:29.473Z,30528
2016-11-29T09:14:29.424Z,30656
2016-11-29T09:15:29.503Z,28480
2016-11-29T09:16:29.415Z,28192
2016-11-29T09:17:29.394Z,28384
2016-11-29T09:18:29.340Z,27072
2016-11-29T09:19:29.374Z,28960
2016-11-29T09:20:29.317Z,29824
2016-11-29T09:21:29.313Z,30592
2016-11-29T09:22:29.317Z,32000
2016-11-29T09:23:29.276Z,33696
2016-11-29T09:24:29.269Z,35552
2016-11-29T09:25:29.262Z,35232
2016-11-29T09:26:29.241Z,34080
2016-11-29T09:27:29.222Z,36672
2016-11-29T09:28:29.209Z,40032
2016-11-29T09:29:29.472Z,37376
2016-11-29T09:30:29.182Z,35232
2016-11-29T09:31:29.162Z,31680
2016-11-29T09:32:29.136Z,26464
2016-11-29T09:33:29.147Z,23232
2016-11-29T09:34:29.106Z,22528
2016-11-29T09:35:29.113Z,23072
2016-11-29T09:36:29.077Z,24192
2016-11-29T09:37:29.070Z,27648
2016-11-29T09:38:29.028Z,30688
2016-11-29T09:39:29.014Z,32768
2016-11-29T09:40:29.055Z,34048
2016-11-29T09:41:28.996Z,34880
2016-11-29T09:42:28.999Z,34656
2016-11-29T09:43:28.948Z,34208
2016-11-29T09:44:28.947Z,35136
2016-11-29T09:45:28.932Z,36992
2016-11-29T09:46:28.905Z,37216
2016-11-29T09:47:28.894Z,34368
2016-11-29T09:48:28.883Z,34432
2016-11-29T09:49:28.855Z,35072
2016-11-29T09:50:28.866Z,34944
2016-11-29T09:51:28.840Z,35776
2016-11-29T09:52:28.849Z,38112
2016-11-29T09:53:28.806Z,38080
2016-11-29T09:54:28.800Z,34784
2016-11-29T09:55:29.087Z,32704
2016-11-29T09:56:28.764Z,31936
2016-11-29T09:57:28.758Z,33312
2016-11-29T09:58:28.734Z,34912
2016-11-29T09:59:28.688Z,34112
2016-11-29T10:00:28.680Z,35392
2016-11-29T10:01:28.665Z,37568
2016-11-29T10:02:28.684Z,37312
2016-11-29T10:03:28.658Z,37056
2016-11-29T10:04:28.648Z,35808
2016-11-29T10:05:28.616Z,32320
2016-11-29T10:06:28.597Z,30880
2016-11-29T10:07:28.578Z,31744
2016-11-29T10:08:28.580Z,32320
2016-11-29T10:09:28.580Z,32864
2016-11-29T10:10:28.554Z,32352
2016-11-29T10:11:28.550Z,31520
2016-11-29T10:12:28.519Z,32224
2016-11-29T10:13:28.483Z,33120
2016-11-29T10:14:28.483Z,36416
2016-11-29T10:15:28.456Z,36544
2016-11-29T10:16:28.447Z,37792
2016-11-29T10:17:28.434Z,37888
2016-11-29T10:18:28.424Z,34304
2016-11-29T10:19:28.386Z,35072
2016-11-29T10:20:28.388Z,37792
2016-11-29T10:21:28.375Z,37024
2016-11-29T10:22:28.346Z,35008
2016-11-29T10:23:28.344Z,36320
2016-11-29T10:24:28.338Z,39008
2016-11-29T10:25:28.293Z,41088
2016-11-29T10:26:28.282Z,43968
2016-11-29T10:27:28.281Z,47840
2016-11-29T10:28:28.271Z,50208
2016-11-29T10:29:28.225Z,49664
2016-11-29T10:30:28.235Z,49216
2016-11-29T10:31:28.212Z,49696
2016-11-29T10:32:28.167Z,45888
2016-11-29T10:33:28.168Z,45280
2016-11-29T10:34:28.162Z,47200
2016-11-29T10:35:28.133Z,46880
2016-11-29T10:36:28.147Z,48320
2016-11-29T10:37:28.120Z,50688
2016-11-29T10:38:28.103Z,52608
2016-11-29T10:39:28.076Z,52192
2016-11-29T10:40:28.092Z,47616
2016-11-29T10:41:28.057Z,46144
2016-11-29T10:42:28.041Z,48768
2016-11-29T10:43:27.993Z,46112
2016-11-29T10:44:28.003Z,43872
2016-11-29T10:45:27.994Z,46272
2016-11-29T10:46:27.982Z,46240
2016-11-29T10:47:27.955Z,43808
2016-11-29T10:48:27.937Z,47296
2016-11-29T10:49:27.900Z,50592
2016-11-29T10:50:27.878Z,48160
2016-11-29T10:51:27.878Z,45920
2016-11-29T10:52:27.884Z,44416
2016-11-29T10:53:27.863Z,44096
2016-11-29T10:54:27.827Z,42976
2016-11-29T10:55:27.812Z,42400
2016-11-29T10:56:27.804Z,41888
2016-11-29T10:57:27.830Z,42656
2016-11-29T10:58:27.743Z,45632
2016-11-29T10:59:27.725Z,46624
2016-11-29T11:00:27.720Z,45984
2016-11-29T11:01:27.733Z,47072
2016-11-29T11:02:27.698Z,45440
2016-11-29T11:03:27.686Z,43936
2016-11-29T11:04:27.678Z,43488
2016-11-29T11:05:27.653Z,44608
2016-11-29T11:06:27.664Z,46656
2016-11-29T11:07:27.629Z,48352
2016-11-29T11:08:27.611Z,51072
2016-11-29T11:09:27.884Z,51040
2016-11-29T11:10:27.582Z,50592
2016-11-29T11:11:27.534Z,53088
2016-11-29T11:12:27.565Z,55648
2016-11-29T11:13:27.507Z,53632
2016-11-29T11:14:27.529Z,50304
2016-11-29T11:15:27.487Z,48672
2016-11-29T11:16:27.468Z,48992
2016-11-29T11:17:27.465Z,50176
2016-11-29T11:18:27.768Z,50432
2016-11-29T11:19:27.432Z,51904
2016-11-29T11:20:27.420Z,52416
2016-11-29T11:21:27.404Z,50432
2016-11-29T11:22:27.402Z,48256
2016-11-29T11:23:27.355Z,48672
2016-11-29T11:24:27.649Z,49760
2016-11-29T11:25:27.330Z,47840
2016-11-29T11:26:27.343Z,44864
2016-11-29T11:27:27.299Z,34304
2016-11-29T11:28:27.262Z,20672
2016-11-29T11:29:27.287Z,23296
2016-11-29T11:30:27.263Z,35392
2016-11-29T11:31:27.247Z,38944
2016-11-29T11:32:27.202Z,36128
2016-11-29T11:33:27.201Z,35456
2016-11-29T11:34:27.176Z,34784
2016-11-29T11:35:27.163Z,33856
2016-11-29T11:36:27.147Z,32320
2016-11-29T11:37:33.389Z,32640
2016-11-29T11:38:27.132Z,33728
2016-11-29T11:39:27.119Z,32352
2016-11-29T11:40:27.099Z,30112
2016-11-29T11:41:27.090Z,29632
2016-11-29T11:42:27.051Z,29632
2016-11-29T11:43:27.064Z,28736
2016-11-29T11:44:27.044Z,27936
2016-11-29T11:45:26.982Z,28352
2016-11-29T11:46:27.003Z,28320
2016-11-29T11:47:26.953Z,27168
2016-11-29T11:48:26.967Z,27008
2016-11-29T11:49:26.954Z,27552
2016-11-29T11:50:26.934Z,26560
2016-11-29T11:51:26.928Z,26592
2016-11-29T11:52:26.911Z,28224
2016-11-29T11:53:26.888Z,30464
2016-11-29T11:54:27.179Z,33280
2016-11-29T11:55:26.844Z,35712
2016-11-29T11:56:26.839Z,36384
2016-11-29T11:57:26.828Z,37952
2016-11-29T11:58:27.003Z,40192
2016-11-29T11:59:26.795Z,41920
2016-11-29T12:00:26.753Z,42272
2016-11-29T12:01:26.734Z,39808
2016-11-29T12:02:26.735Z,35200
2016-11-29T12:03:26.698Z,31040
2016-11-29T12:04:26.683Z,29696
2016-11-29T12:05:26.663Z,32352
2016-11-29T12:06:26.673Z,35648
2016-11-29T12:07:26.641Z,36032
2016-11-29T12:08:26.618Z,35520
2016-11-29T12:09:26.633Z,36480
2016-11-29T12:10:26.618Z,35552
2016-11-29T12:11:26.565Z,31040
2016-11-29T12:12:26.584Z,25344
2016-11-29T12:13:26.543Z,24864
2016-11-29T12:14:26.559Z,27424
2016-11-29T12:15:27.127Z,28448
2016-11-29T12:16:26.501Z,28704
2016-11-29T12:17:26.481Z,30112
2016-11-29T12:18:26.458Z,33312
2016-11-29T12:19:26.460Z,37696
2016-11-29T12:20:26.448Z,38112
2016-11-29T12:21:26.412Z,35072
2016-11-29T12:22:26.390Z,32256
2016-11-29T12:23:26.388Z,28352
2016-11-29T12:24:26.341Z,21472
2016-11-29T12:25:26.361Z,17440
2016-11-29T12:26:26.303Z,17856
2016-11-29T12:27:26.319Z,18432
2016-11-29T12:28:26.276Z,18880
2016-11-29T12:29:26.268Z,19360
2016-11-29T12:30:26.577Z,20192
2016-11-29T12:31:26.223Z,23136
2016-11-29T12:32:26.228Z,32832
2016-11-29T12:33:26.217Z,41856
2016-11-29T12:34:26.189Z,48960
2016-11-29T12:35:26.183Z,55520
2016-11-29T12:36:26.157Z,56064
2016-11-29T12:37:26.153Z,42368
2016-11-29T12:38:26.436Z,31712
2016-11-29T12:39:26.094Z,27904
2016-11-29T12:40:26.087Z,27648
2016-11-29T12:41:26.083Z,26688
2016-11-29T12:42:26.051Z,26368
2016-11-29T12:43:26.035Z,27456
2016-11-29T12:44:26.020Z,31104
2016-11-29T12:45:26.012Z,35328
2016-11-29T12:46:25.969Z,33760
2016-11-29T12:47:25.973Z,30240
2016-11-29T12:48:25.956Z,27136
2016-11-29T12:49:25.944Z,24288
2016-11-29T12:50:25.909Z,25056
2016-11-29T12:51:25.899Z,27872
2016-11-29T12:52:25.874Z,27648
2016-11-29T12:53:25.856Z,26208
2016-11-29T12:54:25.853Z,26176
2016-11-29T12:55:25.839Z,25664
2016-11-29T12:56:25.822Z,25632
2016-11-29T12:57:25.795Z,26176
2016-11-29T12:58:25.767Z,27680
2016-11-29T12:59:25.771Z,28992
2016-11-29T13:00:25.767Z,28000
2016-11-29T13:01:25.722Z,26976
2016-11-29T13:02:25.714Z,27584
2016-11-29T13:03:25.688Z,27968
2016-11-29T13:04:25.675Z,28736
2016-11-29T13:05:25.682Z,28608
2016-11-29T13:06:25.650Z,27840
2016-11-29T13:07:25.629Z,25984
2016-11-29T13:08:25.614Z,23360
2016-11-29T13:09:25.605Z,21696
2016-11-29T13:10:25.571Z,21184
2016-11-29T13:11:25.554Z,21600
2016-11-29T13:12:25.531Z,24480
2016-11-29T13:13:25.527Z,27712
2016-11-29T13:14:25.507Z,28512
2016-11-29T13:15:25.481Z,27616
2016-11-29T13:16:25.473Z,27168
2016-11-29T13:17:25.463Z,26144
2016-11-29T13:18:25.423Z,24096
2016-11-29T13:19:25.417Z,23072
2016-11-29T13:20:25.406Z,21952
2016-11-29T13:21:25.402Z,22496
2016-11-29T13:22:25.403Z,22624
2016-11-29T13:23:25.344Z,22816
2016-11-29T13:24:25.355Z,22944
2016-11-29T13:25:25.331Z,21568
2016-11-29T13:26:25.619Z,21344
2016-11-29T13:27:25.316Z,22656
2016-11-29T13:28:25.331Z,22976
2016-11-29T13:29:25.255Z,23904
2016-11-29T13:30:25.245Z,24992
2016-11-29T13:31:25.231Z,24608
2016-11-29T13:32:25.225Z,23776
2016-11-29T13:33:25.216Z,21152
2016-11-29T13:34:25.189Z,20928
2016-11-29T13:35:25.163Z,20576
2016-11-29T13:36:25.151Z,20480
2016-11-29T13:37:25.157Z,19360
2016-11-29T13:38:25.134Z,17888
2016-11-29T13:39:25.124Z,17856
2016-11-29T13:40:25.098Z,18592
2016-11-29T13:41:25.065Z,19136
2016-11-29T13:42:25.378Z,19840
2016-11-29T13:43:25.065Z,19040
2016-11-29T13:44:25.001Z,17376
2016-11-29T13:45:25.015Z,16640